Time;durP1;ratioP1;P1;durP2;ratioP2;P2;SDS_P1;SDS_P2;PMS_P1;PMS_P2;Temp;Humidity;BMP_temperature;BMP_pressure;BME280_temperature;BME280_humidity;BME280_pressure;Samples;Min_cycle;Max_cycle;Signal;HPM_P1;HPM_P2
2023/04/11 00:02:13;;;;;;;;;2.00;1.00;;;;;12.76;55.79;101078.53;5041867;28;45530;-68
2023/04/11 00:04:39;;;;;;;;;1.00;1.00;;;;;12.76;55.71;101088.22;5041497;28;46154;-69
2023/04/11 00:07:08;;;;;;;;;2.00;2.00;;;;;12.70;55.54;101085.69;5041692;28;45337;-69
2023/04/11 00:09:33;;;;;;;;;0.25;0.00;;;;;12.70;55.54;101106.78;5041866;28;45186;-69
2023/04/11 00:12:00;;;;;;;;;2.00;2.00;;;;;12.65;55.62;101107.75;5041594;28;45223;-68
2023/04/11 00:14:27;;;;;;;;;2.00;1.00;;;;;12.63;55.72;101117.44;5042143;28;45297;-68
2023/04/11 00:16:56;;;;;;;;;4.75;2.00;;;;;12.61;55.42;101121.84;5041557;28;45323;-68
2023/04/11 00:19:24;;;;;;;;;2.00;0.75;;;;;12.56;55.54;101107.03;5041697;28;45386;-69
2023/04/11 00:21:49;;;;;;;;;0.00;0.00;;;;;12.56;55.55;101112.28;5041660;28;45443;-69
2023/04/11 00:24:15;;;;;;;;;2.00;2.00;;;;;12.52;55.40;101114.09;5041505;28;45245;-68
2023/04/11 00:26:40;;;;;;;;;3.50;2.25;;;;;12.49;55.39;101116.78;5041765;28;45194;-69
2023/04/11 00:29:06;;;;;;;;;1.75;1.00;;;;;12.47;55.35;101122.09;5040773;28;51720;-68
2023/04/11 00:31:31;;;;;;;;;2.00;1.00;;;;;12.44;55.35;101119.50;5021776;28;45525;-68
2023/04/11 00:33:57;;;;;;;;;3.00;1.50;;;;;12.41;55.41;101126.59;5038432;28;45348;-69
2023/04/11 00:36:22;;;;;;;;;3.00;2.00;;;;;12.39;55.31;101115.19;5041483;28;45320;-69
2023/04/11 00:38:47;;;;;;;;;0.00;0.00;;;;;12.36;55.09;101116.09;5041435;28;45248;-69
2023/04/11 00:41:13;;;;;;;;;3.50;1.75;;;;;12.34;55.33;101105.59;5041095;28;45300;-69
2023/04/11 00:43:38;;;;;;;;;2.25;1.00;;;;;12.32;55.29;101104.75;5041107;28;46068;-69
2023/04/11 00:46:03;;;;;;;;;2.25;1.00;;;;;12.31;55.12;101110.94;5039961;28;45307;-69
2023/04/11 00:48:30;;;;;;;;;2.25;1.00;;;;;12.30;55.39;101116.19;5041482;28;45309;-69
2023/04/11 00:50:56;;;;;;;;;2.75;1.50;;;;;12.26;55.08;101112.75;5040994;28;45450;-69
2023/04/11 00:53:22;;;;;;;;;1.00;1.00;;;;;12.25;55.10;101121.56;5039754;28;46471;-69
2023/04/11 00:55:48;;;;;;;;;3.00;1.00;;;;;12.22;55.16;101118.97;5041000;28;45335;-69
2023/04/11 00:58:15;;;;;;;;;2.75;1.00;;;;;12.19;55.28;101111.13;5041050;28;45221;-69
2023/04/11 01:00:41;;;;;;;;;3.00;1.00;;;;;12.18;55.16;101115.50;5041015;28;45496;-69
2023/04/11 01:03:07;;;;;;;;;1.25;1.25;;;;;12.16;54.95;101119.03;5040945;28;46938;-69
2023/04/11 01:05:33;;;;;;;;;0.50;0.00;;;;;12.14;55.07;101131.41;5056309;28;45281;-69
2023/04/11 01:08:00;;;;;;;;;3.75;1.00;;;;;12.12;54.87;101118.22;5041068;28;45383;-69
2023/04/11 01:10:29;;;;;;;;;3.25;3.00;;;;;12.10;54.50;101122.66;5040557;28;45257;-69
2023/04/11 01:12:56;;;;;;;;;1.00;1.00;;;;;12.08;54.81;101128.84;5041554;27;45393;-69
2023/04/11 01:15:22;;;;;;;;;2.00;1.25;;;;;12.05;54.86;101115.69;5039933;28;45385;-69
2023/04/11 01:17:47;;;;;;;;;3.00;2.25;;;;;12.01;54.81;101118.38;5040683;28;45444;-69
2023/04/11 01:20:13;;;;;;;;;2.75;1.00;;;;;12.00;54.79;101127.19;5040719;28;45391;-69
2023/04/11 01:22:40;;;;;;;;;3.00;1.00;;;;;11.97;54.58;101137.75;5040570;28;47025;-69
2023/04/11 01:25:06;;;;;;;;;3.75;2.00;;;;;11.96;54.58;101141.28;5040705;28;45372;-69
2023/04/11 01:27:33;;;;;;;;;1.50;1.00;;;;;11.94;54.59;101156.19;5040675;28;45498;-69
2023/04/11 01:29:58;;;;;;;;;5.00;1.50;;;;;11.92;54.57;101151.84;5032394;28;45514;-69
2023/04/11 01:32:24;;;;;;;;;2.25;2.00;;;;;11.93;54.52;101164.13;5025487;28;45318;-69
2023/04/11 01:34:52;;;;;;;;;2.75;1.25;;;;;11.89;54.45;101150.13;5040396;28;45200;-69
2023/04/11 01:37:17;;;;;;;;;2.25;1.00;;;;;11.92;54.35;101149.22;5040674;28;45292;-69
2023/04/11 01:39:43;;;;;;;;;4.00;1.00;;;;;11.90;54.36;101157.13;5039984;28;45596;-68
2023/04/11 01:42:09;;;;;;;;;2.25;0.00;;;;;11.89;54.30;101147.50;5039076;28;46294;-68
2023/04/11 01:44:35;;;;;;;;;5.50;1.25;;;;;11.86;54.11;101152.78;5040295;28;45305;-68
2023/04/11 01:47:01;;;;;;;;;7.50;1.00;;;;;11.81;54.24;101152.84;5040562;28;45300;-68
2023/04/11 01:49:26;;;;;;;;;1.25;0.00;;;;;11.81;54.03;101159.88;5055603;28;45239;-68
2023/04/11 01:51:51;;;;;;;;;4.25;0.00;;;;;11.79;54.14;101166.94;5055701;28;46166;-68
2023/04/11 01:54:17;;;;;;;;;1.75;0.25;;;;;11.77;53.98;101161.66;5040158;28;45232;-68
2023/04/11 01:56:42;;;;;;;;;4.00;1.50;;;;;11.78;53.95;101157.28;5040380;28;45244;-68
2023/04/11 01:59:08;;;;;;;;;3.75;1.25;;;;;11.77;53.92;101185.38;5039795;28;45392;-68
2023/04/11 02:01:33;;;;;;;;;3.00;2.00;;;;;11.76;53.99;101188.03;5040101;28;46287;-68
2023/04/11 02:03:59;;;;;;;;;4.00;1.50;;;;;11.73;53.95;101174.91;5039891;28;45253;-68
2023/04/11 02:06:26;;;;;;;;;3.50;1.00;;;;;11.75;53.95;101167.84;5038892;28;45166;-68
2023/04/11 02:08:51;;;;;;;;;1.00;0.00;;;;;11.72;53.70;101187.19;5039856;28;45771;-68
2023/04/11 02:11:17;;;;;;;;;3.50;2.75;;;;;11.72;53.90;101184.56;5039801;28;46686;-68
2023/04/11 02:13:42;;;;;;;;;2.50;0.75;;;;;11.71;53.94;101186.31;5039681;28;45376;-68
2023/04/11 02:16:13;;;;;;;;;0.75;0.50;;;;;11.71;53.91;101199.50;5040239;28;45304;-68
2023/04/11 02:18:41;;;;;;;;;2.00;1.25;;;;;11.67;53.98;101189.91;5039728;28;45224;-69
2023/04/11 02:21:06;;;;;;;;;6.25;2.00;;;;;11.69;54.03;101198.63;5055317;28;46186;-68
2023/04/11 02:23:33;;;;;;;;;1.00;0.50;;;;;11.69;53.92;101196.00;5039642;28;45344;-68
2023/04/11 02:25:58;;;;;;;;;5.00;1.25;;;;;11.68;54.02;101204.81;5039957;28;45353;-68
2023/04/11 02:28:24;;;;;;;;;3.50;1.25;;;;;11.66;53.90;101203.94;5045962;28;45413;-68
2023/04/11 02:30:49;;;;;;;;;2.50;1.00;;;;;11.64;53.92;101192.53;5034254;28;46375;-68
2023/04/11 02:33:15;;;;;;;;;0.75;0.75;;;;;11.63;53.89;101188.16;5038652;28;45461;-68
2023/04/11 02:35:40;;;;;;;;;3.75;2.00;;;;;11.63;53.91;101179.41;5046458;28;45753;-68
2023/04/11 02:38:06;;;;;;;;;3.50;2.00;;;;;11.61;53.85;101187.31;5046581;28;45494;-68
2023/04/11 02:40:31;;;;;;;;;1.25;1.25;;;;;11.58;53.89;101191.75;5046026;28;46025;-68
2023/04/11 02:42:56;;;;;;;;;2.00;1.00;;;;;11.57;53.87;101188.22;5046301;28;45279;-68
2023/04/11 02:45:22;;;;;;;;;2.00;2.00;;;;;11.56;53.90;101189.16;5046394;28;45143;-68
2023/04/11 02:47:47;;;;;;;;;2.00;2.00;;;;;11.55;53.96;101195.28;5045905;28;54465;-68
2023/04/11 02:50:12;;;;;;;;;3.50;1.00;;;;;11.52;54.02;101195.31;5045641;28;59736;-68
2023/04/11 02:52:40;;;;;;;;;3.50;2.00;;;;;11.52;54.03;101208.47;5046020;28;45235;-68
2023/04/11 02:55:07;;;;;;;;;2.00;0.00;;;;;11.51;54.04;101196.22;5046127;28;45305;-68
2023/04/11 02:57:32;;;;;;;;;3.25;2.25;;;;;11.49;54.04;101193.56;5046004;28;45316;-68
2023/04/11 02:59:57;;;;;;;;;1.50;1.25;;;;;11.50;53.95;101197.09;5045560;28;55041;-68
2023/04/11 03:02:22;;;;;;;;;1.00;1.00;;;;;11.50;54.13;101194.47;5045848;28;48240;-68
2023/04/11 03:04:48;;;;;;;;;5.50;3.00;;;;;11.48;54.04;101197.13;5044897;28;45394;-68
2023/04/11 03:07:13;;;;;;;;;3.25;2.00;;;;;11.42;54.18;101198.94;5044801;28;45265;-68
2023/04/11 03:09:38;;;;;;;;;4.50;0.75;;;;;11.45;53.67;101210.31;5045729;28;45269;-68
2023/04/11 03:12:04;;;;;;;;;2.00;2.00;;;;;11.47;54.13;101220.81;5045983;28;45241;-68
2023/04/11 03:14:29;;;;;;;;;2.50;2.00;;;;;11.44;54.25;101216.44;5045891;28;45319;-68
2023/04/11 03:16:54;;;;;;;;;4.75;0.00;;;;;11.44;53.87;101229.59;5061251;28;45578;-68
2023/04/11 03:19:20;;;;;;;;;3.50;2.00;;;;;11.44;54.23;101228.75;5045807;28;45426;-67
2023/04/11 03:21:45;;;;;;;;;2.25;1.00;;;;;11.43;54.23;101227.84;5045770;28;45322;-68
2023/04/11 03:24:11;;;;;;;;;1.50;0.00;;;;;11.41;54.14;101229.66;5043815;28;59826;-67
2023/04/11 03:26:36;;;;;;;;;3.50;1.25;;;;;11.38;54.43;101220.03;5045637;28;45506;-67
2023/04/11 03:29:02;;;;;;;;;5.00;1.50;;;;;11.38;54.09;101221.78;5045346;28;45776;-68
2023/04/11 03:31:29;;;;;;;;;2.75;2.00;;;;;11.37;54.33;101235.81;5027033;28;45300;-68
2023/04/11 03:33:54;;;;;;;;;4.00;2.25;;;;;11.35;53.93;101227.94;5043292;28;45266;-68
2023/04/11 03:36:21;;;;;;;;;0.25;0.25;;;;;11.33;54.24;101224.47;5045457;28;45233;-67
2023/04/11 03:38:46;;;;;;;;;5.00;2.75;;;;;11.31;54.29;101239.38;5042836;28;46361;-68
2023/04/11 03:41:12;;;;;;;;;4.00;2.25;;;;;11.30;54.40;101229.75;5041813;28;45316;-68
2023/04/11 03:43:37;;;;;;;;;3.25;2.00;;;;;11.28;54.26;101236.78;5042197;28;45323;-68
2023/04/11 03:46:03;;;;;;;;;3.75;2.25;;;;;11.21;54.14;101214.06;5042106;28;45316;-67
2023/04/11 03:48:28;;;;;;;;;3.00;2.00;;;;;11.27;54.35;101242.94;5042269;28;45796;-68
2023/04/11 03:50:54;;;;;;;;;2.00;1.75;;;;;11.26;54.28;101251.72;5041874;28;45438;-68
2023/04/11 03:53:19;;;;;;;;;4.50;1.50;;;;;11.28;54.26;101254.31;5042357;28;45483;-67
2023/04/11 03:55:45;;;;;;;;;3.25;1.00;;;;;11.27;54.21;101248.19;5041848;28;45309;-68
2023/04/11 03:58:10;;;;;;;;;5.50;3.25;;;;;11.28;54.36;101260.47;5041781;28;46307;-68
2023/04/11 04:00:36;;;;;;;;;6.00;2.00;;;;;11.26;54.31;101259.59;5041970;28;45447;-68
2023/04/11 04:03:01;;;;;;;;;4.00;1.00;;;;;11.25;54.33;101242.06;5042168;28;45321;-67
2023/04/11 04:05:27;;;;;;;;;3.50;1.00;;;;;11.25;54.42;101247.34;5041864;28;45165;-68
2023/04/11 04:07:52;;;;;;;;;7.50;6.75;;;;;11.24;54.40;101247.34;5041778;28;47043;-67
2023/04/11 04:10:17;;;;;;;;;2.00;2.00;;;;;11.20;54.42;101247.34;5041609;28;45426;-68
2023/04/11 04:12:43;;;;;;;;;3.00;1.00;;;;;11.22;54.49;101255.25;5042048;28;45222;-68
2023/04/11 04:15:10;;;;;;;;;3.00;1.25;;;;;11.22;54.34;101260.53;5041487;28;45249;-68
2023/04/11 04:17:35;;;;;;;;;3.00;2.00;;;;;11.21;54.51;101256.16;5041772;28;45284;-68
2023/04/11 04:20:00;;;;;;;;;4.00;2.25;;;;;11.19;54.46;101258.78;5041418;28;45339;-67
2023/04/11 04:22:28;;;;;;;;;6.75;3.75;;;;;11.19;54.45;101261.44;5041713;28;45863;-68
2023/04/11 04:24:56;;;;;;;;;2.00;2.00;;;;;11.16;54.72;101256.19;5041481;28;45359;-68
2023/04/11 04:27:23;;;;;;;;;5.75;2.50;;;;;11.15;54.40;101248.31;5040060;28;45253;-67
2023/04/11 04:29:51;;;;;;;;;3.75;2.75;;;;;11.18;54.39;101253.53;5035852;28;45459;-67
2023/04/11 04:32:21;;;;;;;;;3.00;2.00;;;;;11.15;54.59;101251.78;5032267;28;45359;-68
2023/04/11 04:34:48;;;;;;;;;13.75;11.00;;;;;11.16;54.30;101260.56;5041295;28;45529;-68
2023/04/11 04:37:22;;;;;;;;;4.25;3.25;;;;;11.14;54.58;101259.69;5041109;28;46977;-68
2023/04/11 04:39:55;;;;;;;;;1.25;1.00;;;;;11.10;54.48;101255.38;5041002;28;45272;-67
2023/04/11 04:42:25;;;;;;;;;3.75;3.75;;;;;11.09;54.68;101262.34;5056679;28;45361;-67
2023/04/11 04:44:51;;;;;;;;;2.50;2.00;;;;;11.08;54.66;101247.50;5041178;28;45305;-67
2023/04/11 04:47:17;;;;;;;;;4.50;2.00;;;;;11.07;54.69;101251.00;5056731;28;45438;-67
2023/04/11 04:49:43;;;;;;;;;3.75;1.00;;;;;11.03;54.78;101252.78;5040356;28;45340;-67
2023/04/11 04:52:10;;;;;;;;;2.00;2.00;;;;;11.02;54.62;101251.03;5040620;28;45415;-68
2023/04/11 04:54:35;;;;;;;;;1.00;1.00;;;;;10.97;54.93;101255.47;5041017;28;45323;-68
2023/04/11 04:57:01;;;;;;;;;2.75;2.75;;;;;10.99;54.72;101268.59;5040766;28;45974;-67
2023/04/11 04:59:26;;;;;;;;;5.50;2.75;;;;;10.98;54.89;101261.56;5040937;28;45227;-68
2023/04/11 05:01:52;;;;;;;;;7.25;3.50;;;;;10.99;54.82;101268.59;5040972;28;45482;-68
2023/04/11 05:04:18;;;;;;;;;4.00;2.00;;;;;10.96;54.71;101274.75;5056603;28;45529;-64
2023/04/11 05:06:44;;;;;;;;;5.50;1.50;;;;;10.96;54.75;101271.25;5040725;28;45341;-67
2023/04/11 05:09:09;;;;;;;;;3.00;3.00;;;;;10.92;55.06;101280.91;5040629;28;45236;-68
2023/04/11 05:11:34;;;;;;;;;4.00;2.50;;;;;10.92;54.87;101273.03;5039844;28;45206;-67
2023/04/11 05:14:00;;;;;;;;;6.25;4.75;;;;;10.93;54.82;101279.16;5056171;28;45699;-67
2023/04/11 05:16:25;;;;;;;;;3.00;1.00;;;;;10.91;54.82;101287.06;5040725;28;45402;-68
2023/04/11 05:18:51;;;;;;;;;5.75;2.00;;;;;10.89;55.08;101294.06;5040576;28;45302;-68
2023/04/11 05:21:16;;;;;;;;;1.75;1.00;;;;;10.88;55.08;101292.34;5056279;28;45333;-68
2023/04/11 05:23:41;;;;;;;;;4.75;3.00;;;;;10.88;55.07;101293.22;5039986;28;45649;-68
2023/04/11 05:26:08;;;;;;;;;7.00;3.00;;;;;10.86;55.03;101294.97;5040336;28;45994;-67
2023/04/11 05:28:34;;;;;;;;;2.75;2.00;;;;;10.85;54.98;101300.25;5040672;28;45341;-67
2023/04/11 05:31:00;;;;;;;;;3.25;3.25;;;;;10.77;55.38;101292.41;5025900;28;45337;-67
2023/04/11 05:33:26;;;;;;;;;2.25;1.50;;;;;10.83;55.03;101291.47;5034238;28;45427;-67
2023/04/11 05:35:51;;;;;;;;;3.50;0.50;;;;;10.83;55.02;101291.47;5039082;28;45479;-67
2023/04/11 05:38:16;;;;;;;;;4.25;1.50;;;;;10.84;54.94;101294.13;5040592;28;45284;-67
2023/04/11 05:40:42;;;;;;;;;4.75;3.25;;;;;10.84;55.12;101293.22;5040317;28;45312;-67
2023/04/11 05:43:12;;;;;;;;;3.50;3.25;;;;;10.84;54.97;101290.59;5055831;28;45287;-67
2023/04/11 05:45:38;;;;;;;;;3.25;2.50;;;;;10.84;55.04;101293.22;5040174;28;46566;-67
2023/04/11 05:48:06;;;;;;;;;4.00;2.75;;;;;10.81;55.13;101291.50;5040338;28;45341;-67
2023/04/11 05:50:32;;;;;;;;;9.00;4.25;;;;;10.80;55.18;101296.75;5055655;28;45409;-67
2023/04/11 05:52:57;;;;;;;;;6.25;4.00;;;;;10.79;55.04;101290.66;5040345;28;45216;-67
2023/04/11 05:55:22;;;;;;;;;2.75;2.00;;;;;10.79;55.16;101301.16;5039747;28;56402;-67
2023/04/11 05:57:47;;;;;;;;;2.25;2.25;;;;;10.81;55.59;101295.88;5040039;28;45305;-67
2023/04/11 06:00:15;;;;;;;;;4.00;2.50;;;;;10.80;55.18;101291.50;5040316;28;45250;-67
2023/04/11 06:02:41;;;;;;;;;4.00;3.00;;;;;10.79;55.45;101295.91;5055283;28;45424;-67
2023/04/11 06:05:09;;;;;;;;;5.00;1.50;;;;;10.80;55.20;101302.03;5039862;28;46278;-67
2023/04/11 06:07:34;;;;;;;;;5.75;3.00;;;;;10.78;55.25;101298.53;5040187;28;45343;-67
2023/04/11 06:10:00;;;;;;;;;9.00;2.25;;;;;10.79;55.58;101298.53;5038661;28;45181;-67
2023/04/11 06:12:25;;;;;;;;;4.75;3.75;;;;;10.80;55.54;101291.50;5040318;28;45514;-67
2023/04/11 06:14:50;;;;;;;;;3.25;3.25;;;;;10.80;55.33;101302.88;5039811;28;45292;-67
2023/04/11 06:17:16;;;;;;;;;2.00;2.00;;;;;10.79;55.38;101305.53;5040002;28;45365;-67
2023/04/11 06:19:41;;;;;;;;;4.50;4.00;;;;;10.79;55.53;101313.41;5040070;28;45286;-67
2023/04/11 06:22:06;;;;;;;;;5.50;2.50;;;;;10.80;55.35;101318.66;5039674;28;57806;-67
2023/04/11 06:24:37;;;;;;;;;6.50;2.75;;;;;10.81;55.38;101309.91;5021553;28;51652;-67
2023/04/11 06:27:03;;;;;;;;;2.50;2.50;;;;;10.80;55.63;101309.91;5039976;28;45344;-67
2023/04/11 06:29:29;;;;;;;;;5.00;2.75;;;;;10.79;55.34;101309.06;5036594;28;45331;-67
2023/04/11 06:31:54;;;;;;;;;3.75;3.00;;;;;10.81;55.58;101322.19;5020911;28;45343;-67
2023/04/11 06:34:20;;;;;;;;;6.25;4.00;;;;;10.82;55.75;101316.03;5039003;28;45328;-67
2023/04/11 06:36:48;;;;;;;;;2.50;0.50;;;;;10.83;55.51;101317.75;5039779;28;45303;-67
2023/04/11 06:39:15;;;;;;;;;2.75;2.50;;;;;10.83;55.17;101330.91;5039672;28;45216;-67
2023/04/11 06:41:40;;;;;;;;;7.25;2.00;;;;;10.77;55.35;101308.19;5039611;28;45234;-67
2023/04/11 06:44:06;;;;;;;;;5.50;3.25;;;;;10.85;55.50;101321.28;5038868;28;45399;-67
2023/04/11 06:46:31;;;;;;;;;4.00;2.75;;;;;10.86;55.47;101328.28;5039629;28;45296;-65
2023/04/11 06:48:56;;;;;;;;;5.75;2.00;;;;;10.88;55.35;101323.91;5039521;28;45555;-67
2023/04/11 06:51:22;;;;;;;;;5.75;3.00;;;;;10.88;55.62;101335.28;5054771;28;48405;-67
2023/04/11 06:53:47;;;;;;;;;4.25;4.00;;;;;10.90;55.66;101332.63;5039431;28;45315;-68
2023/04/11 06:56:12;;;;;;;;;4.00;2.75;;;;;10.91;55.56;101347.53;5039309;28;45280;-67
2023/04/11 06:58:37;;;;;;;;;4.00;2.00;;;;;10.94;55.73;101350.13;5036956;28;45460;-67
2023/04/11 07:01:03;;;;;;;;;3.75;3.25;;;;;10.95;55.50;101348.38;5039547;28;45455;-67
2023/04/11 07:03:29;;;;;;;;;3.00;2.25;;;;;10.94;55.64;101352.75;5039348;28;46204;-67
2023/04/11 07:05:55;;;;;;;;;6.75;3.00;;;;;10.85;55.77;101329.16;5039593;28;45280;-67
2023/04/11 07:08:20;;;;;;;;;5.00;3.00;;;;;10.89;55.74;101346.66;5039361;28;45344;-67
2023/04/11 07:10:46;;;;;;;;;5.50;2.75;;;;;10.98;55.77;101361.50;5039218;28;45461;-67
2023/04/11 07:13:11;;;;;;;;;3.00;2.00;;;;;10.97;55.82;101360.66;5039130;28;46020;-67
2023/04/11 07:15:36;;;;;;;;;6.50;2.50;;;;;11.00;55.77;101357.97;5042900;28;45407;-67
2023/04/11 07:18:02;;;;;;;;;4.75;3.75;;;;;11.02;55.75;101365.88;5042811;28;45292;-67
2023/04/11 07:20:27;;;;;;;;;6.75;3.00;;;;;11.02;55.65;101365.88;5042805;28;45459;-67
2023/04/11 07:22:52;;;;;;;;;5.75;3.00;;;;;11.04;55.66;101367.63;5042494;28;46333;-67
2023/04/11 07:25:21;;;;;;;;;2.25;0.00;;;;;11.08;55.76;101360.59;5041442;28;45258;-67
2023/04/11 07:27:48;;;;;;;;;5.00;3.75;;;;;11.10;55.66;101361.44;5042432;28;45169;-67
2023/04/11 07:30:14;;;;;;;;;7.00;6.00;;;;;11.11;55.65;101355.28;5034304;28;45411;-67
2023/04/11 07:32:40;;;;;;;;;6.50;4.25;;;;;11.17;55.70;101352.63;5029491;28;46195;-67
2023/04/11 07:35:05;;;;;;;;;6.75;4.00;;;;;11.19;55.54;101355.25;5042558;28;45448;-67
2023/04/11 07:37:31;;;;;;;;;3.75;2.00;;;;;11.22;55.37;101344.72;5042326;28;45351;-67
2023/04/11 07:39:56;;;;;;;;;5.50;2.75;;;;;11.24;55.51;101342.06;5042171;28;45299;-67
2023/04/11 07:42:21;;;;;;;;;4.00;2.00;;;;;11.28;55.69;101356.94;5041722;28;57383;-67
2023/04/11 07:44:47;;;;;;;;;3.25;2.00;;;;;11.29;55.63;101349.03;5042166;28;45307;-67
2023/04/11 07:47:12;;;;;;;;;5.25;2.25;;;;;11.32;55.53;101359.53;5057908;28;45188;-67
2023/04/11 07:49:38;;;;;;;;;3.25;1.75;;;;;11.32;55.62;101354.28;5040852;28;45425;-67
2023/04/11 07:52:03;;;;;;;;;4.75;4.75;;;;;11.35;55.59;101354.25;5042135;28;45242;-67
2023/04/11 07:54:29;;;;;;;;;4.00;2.00;;;;;11.37;55.57;101343.69;5042159;28;45273;-67
2023/04/11 07:56:55;;;;;;;;;4.25;1.75;;;;;11.40;55.67;101350.72;5041983;28;45271;-67
2023/04/11 07:59:21;;;;;;;;;3.25;3.00;;;;;11.47;55.77;101344.50;5041843;28;45413;-67
2023/04/11 08:01:46;;;;;;;;;3.75;3.00;;;;;11.48;55.45;101344.50;5041636;28;45403;-67
2023/04/11 08:04:11;;;;;;;;;5.75;3.00;;;;;11.52;55.46;101329.53;5042151;28;45154;-67
2023/04/11 08:06:37;;;;;;;;;5.50;4.00;;;;;11.55;55.35;101334.78;5041904;28;45460;-67
2023/04/11 08:09:02;;;;;;;;;2.00;2.00;;;;;11.58;55.40;101347.91;5042338;28;45255;-67
2023/04/11 08:11:28;;;;;;;;;1.75;1.75;;;;;11.62;55.42;101360.19;5041807;28;46222;-67
2023/04/11 08:13:53;;;;;;;;;3.75;3.75;;;;;11.66;55.39;101355.75;5041735;28;45376;-67
2023/04/11 08:16:19;;;;;;;;;2.50;1.50;;;;;11.69;55.34;101361.00;5041780;28;45276;-67
2023/04/11 08:18:44;;;;;;;;;5.00;1.75;;;;;11.75;55.36;101363.56;5041809;28;45292;-67
2023/04/11 08:21:10;;;;;;;;;9.75;3.75;;;;;11.79;55.40;101374.97;5041472;28;47027;-67
2023/04/11 08:23:36;;;;;;;;;2.25;1.75;;;;;11.81;55.38;101367.91;5041952;28;45391;-67
2023/04/11 08:26:01;;;;;;;;;5.00;2.50;;;;;11.86;55.21;101371.34;5041190;28;45272;-67
2023/04/11 08:28:27;;;;;;;;;4.75;2.00;;;;;11.90;55.20;101372.19;5041427;28;45371;-67
2023/04/11 08:30:54;;;;;;;;;4.00;2.00;;;;;11.91;55.24;101359.03;5025541;28;48017;-67
2023/04/11 08:33:22;;;;;;;;;6.50;3.00;;;;;11.94;55.16;101356.38;5033352;28;45434;-68
2023/04/11 08:35:48;;;;;;;;;3.00;3.00;;;;;11.98;55.20;101352.84;5041310;28;45388;-67
2023/04/11 08:38:13;;;;;;;;;6.00;3.75;;;;;11.99;55.07;101359.84;5041164;28;46792;-67
2023/04/11 08:40:38;;;;;;;;;4.00;2.00;;;;;12.03;55.08;101360.69;5039769;28;47258;-67
2023/04/11 08:43:10;;;;;;;;;4.25;2.50;;;;;12.05;55.04;101358.03;5039793;28;48271;-67
2023/04/11 08:45:36;;;;;;;;;3.75;3.00;;;;;12.09;54.90;101370.28;5040132;28;45518;-67
2023/04/11 08:48:01;;;;;;;;;6.00;2.00;;;;;12.10;55.01;101365.03;5039938;28;45474;-67
2023/04/11 08:50:26;;;;;;;;;9.50;3.00;;;;;12.12;54.86;101359.72;5040983;28;45339;-67
2023/04/11 08:52:52;;;;;;;;;2.00;1.00;;;;;12.19;54.65;101366.69;5041265;28;45405;-67
2023/04/11 08:55:18;;;;;;;;;3.50;3.50;;;;;12.22;54.78;101350.84;5040896;28;45412;-68
2023/04/11 08:57:43;;;;;;;;;5.25;4.25;;;;;12.20;54.70;101347.38;5040800;28;45430;-67
2023/04/11 09:00:17;;;;;;;;;3.00;3.00;;;;;12.32;54.78;101378.81;5040759;28;51442;-68
2023/04/11 09:03:04;;;;;;;;;6.25;3.00;;;;;12.40;54.47;101370.84;5041017;28;45435;-67
2023/04/11 09:05:31;;;;;;;;;6.00;4.00;;;;;12.44;54.72;101369.03;5040946;28;45319;-67
2023/04/11 09:07:58;;;;;;;;;4.25;3.00;;;;;12.48;54.60;101358.44;5040923;28;45425;-67
2023/04/11 09:10:24;;;;;;;;;5.50;2.00;;;;;12.52;54.44;101360.13;5040572;28;46236;-67
2023/04/11 09:12:50;;;;;;;;;3.00;3.00;;;;;12.58;54.66;101353.94;5040602;28;45264;-68
2023/04/11 09:15:19;;;;;;;;;1.50;1.00;;;;;12.64;54.70;101351.22;5040820;28;45435;-68
2023/04/11 09:17:45;;;;;;;;;5.50;3.50;;;;;12.68;54.61;101358.19;5040809;28;45352;-68
2023/04/11 09:20:20;;;;;;;;;7.50;2.75;;;;;12.74;54.31;101362.50;5040486;28;46230;-67
2023/04/11 09:22:48;;;;;;;;;5.25;2.75;;;;;12.77;54.36;101351.91;5040653;28;45354;-68
2023/04/11 09:25:14;;;;;;;;;6.25;1.00;;;;;12.81;53.93;101353.59;5040692;28;45245;-67
2023/04/11 09:27:39;;;;;;;;;6.00;2.75;;;;;12.82;53.96;101346.59;5039087;28;45177;-67
2023/04/11 09:30:18;;;;;;;;;1.50;0.25;;;;;12.88;54.12;101345.59;5033685;28;45993;-67
2023/04/11 09:32:44;;;;;;;;;4.50;3.25;;;;;12.91;54.00;101350.84;5028465;28;45543;-67
2023/04/11 09:35:18;;;;;;;;;4.50;3.00;;;;;12.98;54.11;101355.13;5040547;28;45368;-68
2023/04/11 09:37:56;;;;;;;;;6.00;3.00;;;;;13.00;53.91;101354.25;5039374;28;45336;-67
2023/04/11 09:40:24;;;;;;;;;5.00;2.00;;;;;13.07;53.86;101348.84;5039957;28;46220;-67
2023/04/11 09:42:56;;;;;;;;;3.00;3.00;;;;;13.10;53.60;101356.72;5039992;28;45304;-67
2023/04/11 09:45:23;;;;;;;;;2.75;2.75;;;;;13.13;53.74;101362.84;5040509;28;45498;-67
2023/04/11 09:47:51;;;;;;;;;1.25;1.25;;;;;13.18;53.54;101360.13;5040250;28;45233;-67
2023/04/11 09:50:17;;;;;;;;;3.50;3.00;;;;;13.21;53.48;101353.94;5038972;28;45268;-67
2023/04/11 09:52:44;;;;;;;;;5.25;4.00;;;;;13.23;52.87;101350.38;5055833;28;45776;-67
2023/04/11 09:55:24;;;;;;;;;3.00;2.00;;;;;13.25;53.22;101351.22;5040104;28;45394;-67
2023/04/11 09:57:52;;;;;;;;;4.75;1.75;;;;;13.26;52.98;101341.53;5039905;28;45243;-67
2023/04/11 10:00:20;;;;;;;;;5.00;2.25;;;;;13.29;53.06;101347.63;5039988;28;48549;-67
2023/04/11 10:02:52;;;;;;;;;3.00;2.00;;;;;13.29;52.69;101352.91;5040070;28;45568;-67
2023/04/11 10:05:19;;;;;;;;;2.75;2.00;;;;;13.30;52.70;101336.16;5040193;28;45407;-67
2023/04/11 10:08:04;;;;;;;;;3.25;2.00;;;;;13.32;52.64;101349.38;5038627;28;45305;-67
2023/04/11 10:10:30;;;;;;;;;6.25;2.00;;;;;13.31;52.35;101353.75;5039699;28;46179;-67
2023/04/11 10:12:56;;;;;;;;;4.50;1.00;;;;;13.32;52.29;101355.50;5039671;28;45368;-67
2023/04/11 10:15:21;;;;;;;;;2.25;1.00;;;;;13.36;52.33;101353.69;5038790;28;45347;-67
2023/04/11 10:18:10;;;;;;;;;5.00;2.00;;;;;13.36;52.21;101348.41;5039750;28;45236;-67
2023/04/11 10:20:39;;;;;;;;;3.75;2.00;;;;;13.40;52.10;101363.34;5039813;28;46117;-67
2023/04/11 10:23:04;;;;;;;;;4.00;2.50;;;;;13.42;51.97;101366.84;5039813;28;45304;-67
2023/04/11 10:25:30;;;;;;;;;2.00;1.00;;;;;13.43;51.85;101336.91;5039709;28;45561;-67
2023/04/11 10:28:05;;;;;;;;;4.50;2.00;;;;;13.46;51.93;101346.53;5039490;28;45478;-67
2023/04/11 10:30:39;;;;;;;;;5.50;2.00;;;;;13.49;52.18;101338.53;5043448;28;48516;-67
2023/04/11 10:33:08;;;;;;;;;3.50;2.75;;;;;13.52;51.63;101329.69;5029615;28;45323;-67
2023/04/11 10:35:34;;;;;;;;;6.75;3.00;;;;;13.54;52.18;101328.78;5039975;28;45201;-67
2023/04/11 10:37:59;;;;;;;;;3.75;2.00;;;;;13.60;52.09;101333.97;5039353;28;45600;-67
2023/04/11 10:40:25;;;;;;;;;2.50;2.00;;;;;13.64;51.95;101329.50;5039166;28;45420;-67
2023/04/11 10:42:50;;;;;;;;;2.00;1.50;;;;;13.67;51.87;101337.34;5039299;28;45263;-67
2023/04/11 10:45:24;;;;;;;;;3.50;2.75;;;;;13.71;51.67;101325.84;5039788;28;45256;-67
2023/04/11 10:47:55;;;;;;;;;2.75;1.25;;;;;13.77;52.05;101316.94;5040719;28;45304;-65
2023/04/11 10:50:33;;;;;;;;;1.00;1.00;;;;;13.82;51.52;101317.72;5042832;28;46123;-67
2023/04/11 10:53:06;;;;;;;;;2.50;2.00;;;;;13.86;51.63;101310.59;5043201;28;45223;-67
2023/04/11 10:55:48;;;;;;;;;4.75;3.75;;;;;13.92;51.76;101319.31;5042935;28;45446;-67
2023/04/11 10:58:18;;;;;;;;;5.00;2.00;;;;;14.01;51.72;101314.72;5042823;28;45377;-67
2023/04/11 11:00:49;;;;;;;;;5.75;2.00;;;;;14.10;51.83;101314.53;5042752;28;46270;-67
2023/04/11 11:03:30;;;;;;;;;3.50;1.25;;;;;14.17;51.71;101308.25;5041492;28;45432;-67
2023/04/11 11:06:05;;;;;;;;;4.75;2.00;;;;;14.26;51.53;101310.72;5042936;28;45313;-67
2023/04/11 11:08:33;;;;;;;;;6.00;2.25;;;;;14.33;51.42;101305.31;5041456;28;45501;-67
2023/04/11 11:11:05;;;;;;;;;3.25;2.75;;;;;14.43;51.83;101297.13;5041051;28;47160;-67
2023/04/11 11:13:42;;;;;;;;;3.00;2.50;;;;;14.52;51.58;101290.78;5042369;28;45182;-67
2023/04/11 11:16:12;;;;;;;;;4.75;2.75;;;;;14.58;51.28;101277.41;5042829;28;45415;-67
2023/04/11 11:18:37;;;;;;;;;3.00;2.00;;;;;14.64;51.13;101281.72;5042314;28;45608;-67
2023/04/11 11:21:03;;;;;;;;;3.00;3.00;;;;;14.68;51.36;101264.00;5042407;28;46286;-67
2023/04/11 11:23:28;;;;;;;;;4.75;1.75;;;;;14.76;51.18;101267.34;5041063;28;45316;-67